sensor_id;sensor_type;location;lat;lon;timestamp;temperature;humidity
60234;DHT22;49514;43.538;-5.708;2024-02-15T00:00:41;18.00;99.90
60234;DHT22;49514;43.538;-5.708;2024-02-15T00:03:09;17.90;99.90
60234;DHT22;49514;43.538;-5.708;2024-02-15T00:05:39;17.90;99.90
60234;DHT22;49514;43.538;-5.708;2024-02-15T00:08:06;17.80;99.90
60234;DHT22;49514;43.538;-5.708;2024-02-15T00:10:33;17.80;99.90
60234;DHT22;49514;43.538;-5.708;2024-02-15T00:13:00;17.80;99.90
60234;DHT22;49514;43.538;-5.708;2024-02-15T00:15:28;17.70;99.90
60234;DHT22;49514;43.538;-5.708;2024-02-15T00:17:56;17.70;99.90
60234;DHT22;49514;43.538;-5.708;2024-02-15T00:20:22;17.70;99.90
60234;DHT22;49514;43.538;-5.708;2024-02-15T00:22:49;17.60;99.90
60234;DHT22;49514;43.538;-5.708;2024-02-15T00:25:16;17.60;99.90
60234;DHT22;49514;43.538;-5.708;2024-02-15T00:27:42;17.50;99.90
60234;DHT22;49514;43.538;-5.708;2024-02-15T00:30:09;17.50;99.90
60234;DHT22;49514;43.538;-5.708;2024-02-15T00:32:36;17.50;99.90
60234;DHT22;49514;43.538;-5.708;2024-02-15T00:35:05;17.50;99.90
60234;DHT22;49514;43.538;-5.708;2024-02-15T00:37:36;17.40;99.90
60234;DHT22;49514;43.538;-5.708;2024-02-15T00:40:03;17.40;99.90
60234;DHT22;49514;43.538;-5.708;2024-02-15T00:42:30;17.40;99.90
60234;DHT22;49514;43.538;-5.708;2024-02-15T00:45:00;17.30;99.90
60234;DHT22;49514;43.538;-5.708;2024-02-15T00:47:27;17.30;99.90
60234;DHT22;49514;43.538;-5.708;2024-02-15T00:49:54;17.20;99.90
60234;DHT22;49514;43.538;-5.708;2024-02-15T00:52:21;17.20;99.90
60234;DHT22;49514;43.538;-5.708;2024-02-15T00:54:48;17.20;99.90
60234;DHT22;49514;43.538;-5.708;2024-02-15T00:57:14;17.10;99.90
60234;DHT22;49514;43.538;-5.708;2024-02-15T00:59:41;17.00;99.90
60234;DHT22;49514;43.538;-5.708;2024-02-15T01:02:07;16.90;99.90
60234;DHT22;49514;43.538;-5.708;2024-02-15T01:04:34;16.80;99.90
60234;DHT22;49514;43.538;-5.708;2024-02-15T01:07:01;16.70;99.90
60234;DHT22;49514;43.538;-5.708;2024-02-15T01:09:29;16.70;99.90
60234;DHT22;49514;43.538;-5.708;2024-02-15T01:11:55;16.60;99.90
60234;DHT22;49514;43.538;-5.708;2024-02-15T01:14:25;16.60;99.90
60234;DHT22;49514;43.538;-5.708;2024-02-15T01:16:56;16.50;99.90
60234;DHT22;49514;43.538;-5.708;2024-02-15T01:19:23;16.50;99.90
60234;DHT22;49514;43.538;-5.708;2024-02-15T01:21:49;16.40;99.90
60234;DHT22;49514;43.538;-5.708;2024-02-15T01:24:16;16.30;99.90
60234;DHT22;49514;43.538;-5.708;2024-02-15T01:26:43;16.30;99.90
60234;DHT22;49514;43.538;-5.708;2024-02-15T01:29:09;16.20;99.90
60234;DHT22;49514;43.538;-5.708;2024-02-15T01:31:38;16.20;99.90
60234;DHT22;49514;43.538;-5.708;2024-02-15T01:34:05;16.10;99.90
60234;DHT22;49514;43.538;-5.708;2024-02-15T01:36:31;16.10;99.90
60234;DHT22;49514;43.538;-5.708;2024-02-15T01:38:59;16.10;99.90
60234;DHT22;49514;43.538;-5.708;2024-02-15T01:41:25;16.20;99.90
60234;DHT22;49514;43.538;-5.708;2024-02-15T01:43:52;16.30;99.90
60234;DHT22;49514;43.538;-5.708;2024-02-15T01:46:19;16.40;99.90
60234;DHT22;49514;43.538;-5.708;2024-02-15T01:48:47;16.50;99.90
60234;DHT22;49514;43.538;-5.708;2024-02-15T01:51:15;16.60;99.90
60234;DHT22;49514;43.538;-5.708;2024-02-15T01:53:42;16.70;99.90
60234;DHT22;49514;43.538;-5.708;2024-02-15T01:56:11;16.70;99.90
60234;DHT22;49514;43.538;-5.708;2024-02-15T01:58:40;16.70;99.90
60234;DHT22;49514;43.538;-5.708;2024-02-15T02:01:07;16.80;99.90
60234;DHT22;49514;43.538;-5.708;2024-02-15T02:03:35;16.80;99.90
60234;DHT22;49514;43.538;-5.708;2024-02-15T02:06:02;16.80;99.90
60234;DHT22;49514;43.538;-5.708;2024-02-15T02:08:29;16.80;99.90
60234;DHT22;49514;43.538;-5.708;2024-02-15T02:10:56;16.80;99.90
60234;DHT22;49514;43.538;-5.708;2024-02-15T02:13:23;16.90;99.90
60234;DHT22;49514;43.538;-5.708;2024-02-15T02:15:50;16.90;99.90
60234;DHT22;49514;43.538;-5.708;2024-02-15T02:18:17;16.90;99.90
60234;DHT22;49514;43.538;-5.708;2024-02-15T02:20:44;17.00;99.90
60234;DHT22;49514;43.538;-5.708;2024-02-15T02:23:15;16.90;99.90
60234;DHT22;49514;43.538;-5.708;2024-02-15T02:25:43;17.00;99.90
60234;DHT22;49514;43.538;-5.708;2024-02-15T02:28:10;17.00;99.90
60234;DHT22;49514;43.538;-5.708;2024-02-15T02:30:37;17.00;99.90
60234;DHT22;49514;43.538;-5.708;2024-02-15T02:33:14;16.90;99.90
60234;DHT22;49514;43.538;-5.708;2024-02-15T02:35:45;16.90;99.90
60234;DHT22;49514;43.538;-5.708;2024-02-15T02:38:14;16.90;99.90
60234;DHT22;49514;43.538;-5.708;2024-02-15T02:40:41;16.90;99.90
60234;DHT22;49514;43.538;-5.708;2024-02-15T02:43:08;16.90;99.90
60234;DHT22;49514;43.538;-5.708;2024-02-15T02:45:34;17.00;99.90
60234;DHT22;49514;43.538;-5.708;2024-02-15T02:48:01;17.00;99.90
60234;DHT22;49514;43.538;-5.708;2024-02-15T02:50:27;16.90;99.90
60234;DHT22;49514;43.538;-5.708;2024-02-15T02:52:54;16.90;99.90
60234;DHT22;49514;43.538;-5.708;2024-02-15T02:55:22;16.90;99.90
60234;DHT22;49514;43.538;-5.708;2024-02-15T02:57:48;16.90;99.90
60234;DHT22;49514;43.538;-5.708;2024-02-15T03:00:15;16.80;99.90
60234;DHT22;49514;43.538;-5.708;2024-02-15T03:02:43;16.80;99.90
60234;DHT22;49514;43.538;-5.708;2024-02-15T03:05:10;16.90;99.90
60234;DHT22;49514;43.538;-5.708;2024-02-15T03:07:39;17.00;99.90
60234;DHT22;49514;43.538;-5.708;2024-02-15T03:10:09;17.10;99.90
60234;DHT22;49514;43.538;-5.708;2024-02-15T03:12:39;17.30;99.90
60234;DHT22;49514;43.538;-5.708;2024-02-15T03:15:07;17.40;99.90
60234;DHT22;49514;43.538;-5.708;2024-02-15T03:17:42;17.60;99.90
60234;DHT22;49514;43.538;-5.708;2024-02-15T03:20:11;17.70;99.90
60234;DHT22;49514;43.538;-5.708;2024-02-15T03:22:57;17.70;99.90
60234;DHT22;49514;43.538;-5.708;2024-02-15T03:25:24;17.80;99.90
60234;DHT22;49514;43.538;-5.708;2024-02-15T03:27:52;17.80;99.90
60234;DHT22;49514;43.538;-5.708;2024-02-15T03:30:20;17.80;99.90
60234;DHT22;49514;43.538;-5.708;2024-02-15T03:32:48;17.80;99.90
60234;DHT22;49514;43.538;-5.708;2024-02-15T03:35:16;17.80;99.90
60234;DHT22;49514;43.538;-5.708;2024-02-15T03:37:43;17.70;99.90
60234;DHT22;49514;43.538;-5.708;2024-02-15T03:40:10;17.70;99.90
60234;DHT22;49514;43.538;-5.708;2024-02-15T03:42:37;17.70;99.90
60234;DHT22;49514;43.538;-5.708;2024-02-15T03:45:05;17.60;99.90
60234;DHT22;49514;43.538;-5.708;2024-02-15T03:47:37;17.70;99.90
60234;DHT22;49514;43.538;-5.708;2024-02-15T03:50:06;17.80;99.90
60234;DHT22;49514;43.538;-5.708;2024-02-15T03:52:34;17.90;99.90
60234;DHT22;49514;43.538;-5.708;2024-02-15T03:55:01;18.00;99.90
60234;DHT22;49514;43.538;-5.708;2024-02-15T03:57:29;18.00;99.90
60234;DHT22;49514;43.538;-5.708;2024-02-15T03:59:56;18.10;99.90
60234;DHT22;49514;43.538;-5.708;2024-02-15T04:02:25;18.10;99.90
60234;DHT22;49514;43.538;-5.708;2024-02-15T04:04:56;18.00;99.90
60234;DHT22;49514;43.538;-5.708;2024-02-15T04:07:23;18.00;99.90
60234;DHT22;49514;43.538;-5.708;2024-02-15T04:09:53;17.90;99.90
60234;DHT22;49514;43.538;-5.708;2024-02-15T04:12:20;17.80;99.90
60234;DHT22;49514;43.538;-5.708;2024-02-15T04:14:48;17.80;99.90
60234;DHT22;49514;43.538;-5.708;2024-02-15T04:17:15;17.70;99.90
60234;DHT22;49514;43.538;-5.708;2024-02-15T04:19:47;17.60;99.90
60234;DHT22;49514;43.538;-5.708;2024-02-15T04:22:14;17.60;99.90
60234;DHT22;49514;43.538;-5.708;2024-02-15T04:24:43;17.50;99.90
60234;DHT22;49514;43.538;-5.708;2024-02-15T04:27:11;17.50;99.90
60234;DHT22;49514;43.538;-5.708;2024-02-15T04:29:39;17.40;99.90
60234;DHT22;49514;43.538;-5.708;2024-02-15T04:32:08;17.40;99.90
60234;DHT22;49514;43.538;-5.708;2024-02-15T04:34:38;17.40;99.90
60234;DHT22;49514;43.538;-5.708;2024-02-15T04:37:05;17.40;99.90
60234;DHT22;49514;43.538;-5.708;2024-02-15T04:39:35;17.30;99.90
60234;DHT22;49514;43.538;-5.708;2024-02-15T04:42:02;17.30;99.90
60234;DHT22;49514;43.538;-5.708;2024-02-15T04:44:31;17.30;99.90
60234;DHT22;49514;43.538;-5.708;2024-02-15T04:47:02;17.30;99.90
60234;DHT22;49514;43.538;-5.708;2024-02-15T04:49:30;17.30;99.90
60234;DHT22;49514;43.538;-5.708;2024-02-15T04:51:57;17.30;99.90
60234;DHT22;49514;43.538;-5.708;2024-02-15T04:54:24;17.30;99.90
60234;DHT22;49514;43.538;-5.708;2024-02-15T04:56:50;17.30;99.90
60234;DHT22;49514;43.538;-5.708;2024-02-15T04:59:20;17.30;99.90
60234;DHT22;49514;43.538;-5.708;2024-02-15T05:01:50;17.30;99.90
60234;DHT22;49514;43.538;-5.708;2024-02-15T05:04:18;17.30;99.90
60234;DHT22;49514;43.538;-5.708;2024-02-15T05:06:44;17.20;99.90
60234;DHT22;49514;43.538;-5.708;2024-02-15T05:09:11;17.10;99.90
60234;DHT22;49514;43.538;-5.708;2024-02-15T05:11:38;17.10;99.90
60234;DHT22;49514;43.538;-5.708;2024-02-15T05:14:07;17.10;99.90
60234;DHT22;49514;43.538;-5.708;2024-02-15T05:16:34;17.10;99.90
60234;DHT22;49514;43.538;-5.708;2024-02-15T05:19:01;17.00;99.90
60234;DHT22;49514;43.538;-5.708;2024-02-15T05:21:29;17.00;99.90
60234;DHT22;49514;43.538;-5.708;2024-02-15T05:23:56;17.00;99.90
60234;DHT22;49514;43.538;-5.708;2024-02-15T05:26:23;17.00;99.90
60234;DHT22;49514;43.538;-5.708;2024-02-15T05:28:50;17.00;99.90
60234;DHT22;49514;43.538;-5.708;2024-02-15T05:31:18;16.90;99.90
60234;DHT22;49514;43.538;-5.708;2024-02-15T05:33:52;16.90;99.90
60234;DHT22;49514;43.538;-5.708;2024-02-15T05:36:21;16.80;99.90
60234;DHT22;49514;43.538;-5.708;2024-02-15T05:38:51;16.80;99.90
60234;DHT22;49514;43.538;-5.708;2024-02-15T05:41:18;16.80;99.90
60234;DHT22;49514;43.538;-5.708;2024-02-15T05:43:47;16.70;99.90
60234;DHT22;49514;43.538;-5.708;2024-02-15T05:46:15;16.70;99.90
60234;DHT22;49514;43.538;-5.708;2024-02-15T05:48:42;16.70;99.90
60234;DHT22;49514;43.538;-5.708;2024-02-15T05:51:08;16.70;99.90
60234;DHT22;49514;43.538;-5.708;2024-02-15T05:53:35;16.60;99.90
60234;DHT22;49514;43.538;-5.708;2024-02-15T05:56:06;16.60;99.90
60234;DHT22;49514;43.538;-5.708;2024-02-15T05:58:33;16.50;99.90
60234;DHT22;49514;43.538;-5.708;2024-02-15T06:01:02;16.60;99.90
60234;DHT22;49514;43.538;-5.708;2024-02-15T06:03:29;16.50;99.90
60234;DHT22;49514;43.538;-5.708;2024-02-15T06:05:58;16.40;99.90
60234;DHT22;49514;43.538;-5.708;2024-02-15T06:08:25;16.40;99.90
60234;DHT22;49514;43.538;-5.708;2024-02-15T06:10:52;16.40;99.90
60234;DHT22;49514;43.538;-5.708;2024-02-15T06:13:20;16.30;99.90
60234;DHT22;49514;43.538;-5.708;2024-02-15T06:15:47;16.30;99.90
60234;DHT22;49514;43.538;-5.708;2024-02-15T06:20:56;16.30;99.90
60234;DHT22;49514;43.538;-5.708;2024-02-15T06:23:23;16.30;99.90
60234;DHT22;49514;43.538;-5.708;2024-02-15T06:25:53;16.20;99.90
60234;DHT22;49514;43.538;-5.708;2024-02-15T06:28:21;16.20;99.90
60234;DHT22;49514;43.538;-5.708;2024-02-15T06:31:10;16.10;99.90
60234;DHT22;49514;43.538;-5.708;2024-02-15T06:33:56;16.00;99.90
60234;DHT22;49514;43.538;-5.708;2024-02-15T06:36:49;16.00;99.90
60234;DHT22;49514;43.538;-5.708;2024-02-15T06:39:35;16.00;99.90
60234;DHT22;49514;43.538;-5.708;2024-02-15T06:42:07;15.90;99.90
60234;DHT22;49514;43.538;-5.708;2024-02-15T06:44:34;15.90;99.90
60234;DHT22;49514;43.538;-5.708;2024-02-15T06:47:01;15.80;99.90
60234;DHT22;49514;43.538;-5.708;2024-02-15T06:49:28;15.80;99.90
60234;DHT22;49514;43.538;-5.708;2024-02-15T06:51:55;15.70;99.90
60234;DHT22;49514;43.538;-5.708;2024-02-15T06:54:21;15.70;99.90
60234;DHT22;49514;43.538;-5.708;2024-02-15T06:56:49;15.60;99.90
60234;DHT22;49514;43.538;-5.708;2024-02-15T06:59:15;15.60;99.90
60234;DHT22;49514;43.538;-5.708;2024-02-15T07:01:43;15.60;99.90
60234;DHT22;49514;43.538;-5.708;2024-02-15T07:04:10;15.50;99.90
60234;DHT22;49514;43.538;-5.708;2024-02-15T07:06:37;15.50;99.90
60234;DHT22;49514;43.538;-5.708;2024-02-15T07:09:05;15.50;99.90
60234;DHT22;49514;43.538;-5.708;2024-02-15T07:11:37;15.40;99.90
60234;DHT22;49514;43.538;-5.708;2024-02-15T07:14:03;15.50;99.90
60234;DHT22;49514;43.538;-5.708;2024-02-15T07:16:33;15.40;99.90
60234;DHT22;49514;43.538;-5.708;2024-02-15T07:19:00;15.30;99.90
60234;DHT22;49514;43.538;-5.708;2024-02-15T07:21:27;15.30;99.90
60234;DHT22;49514;43.538;-5.708;2024-02-15T07:23:54;15.40;99.90
60234;DHT22;49514;43.538;-5.708;2024-02-15T07:26:22;15.40;99.90
60234;DHT22;49514;43.538;-5.708;2024-02-15T07:28:52;15.40;99.90
60234;DHT22;49514;43.538;-5.708;2024-02-15T07:31:20;15.40;99.90
60234;DHT22;49514;43.538;-5.708;2024-02-15T07:33:52;15.40;99.90
60234;DHT22;49514;43.538;-5.708;2024-02-15T07:36:21;15.40;99.90
60234;DHT22;49514;43.538;-5.708;2024-02-15T07:38:48;15.30;99.90
60234;DHT22;49514;43.538;-5.708;2024-02-15T07:41:17;15.40;99.90
60234;DHT22;49514;43.538;-5.708;2024-02-15T07:43:46;15.50;99.90
60234;DHT22;49514;43.538;-5.708;2024-02-15T07:46:14;15.50;99.90
60234;DHT22;49514;43.538;-5.708;2024-02-15T07:48:43;15.60;99.90
60234;DHT22;49514;43.538;-5.708;2024-02-15T07:51:14;15.70;99.90
60234;DHT22;49514;43.538;-5.708;2024-02-15T07:53:42;15.80;99.90
60234;DHT22;49514;43.538;-5.708;2024-02-15T07:56:09;15.90;99.90
60234;DHT22;49514;43.538;-5.708;2024-02-15T07:58:43;15.90;99.90
60234;DHT22;49514;43.538;-5.708;2024-02-15T08:01:14;16.00;99.90
60234;DHT22;49514;43.538;-5.708;2024-02-15T08:03:41;16.00;99.90
60234;DHT22;49514;43.538;-5.708;2024-02-15T08:06:14;16.10;99.90
60234;DHT22;49514;43.538;-5.708;2024-02-15T08:08:43;16.00;99.90
60234;DHT22;49514;43.538;-5.708;2024-02-15T08:11:15;16.00;99.90
60234;DHT22;49514;43.538;-5.708;2024-02-15T08:16:16;16.10;99.90
60234;DHT22;49514;43.538;-5.708;2024-02-15T08:18:43;16.10;99.90
60234;DHT22;49514;43.538;-5.708;2024-02-15T08:21:10;16.10;99.90
60234;DHT22;49514;43.538;-5.708;2024-02-15T08:23:40;16.10;99.90
60234;DHT22;49514;43.538;-5.708;2024-02-15T08:26:07;16.10;99.90
60234;DHT22;49514;43.538;-5.708;2024-02-15T08:28:33;16.10;99.90
60234;DHT22;49514;43.538;-5.708;2024-02-15T08:31:00;16.10;99.90
60234;DHT22;49514;43.538;-5.708;2024-02-15T08:33:27;16.10;99.90
60234;DHT22;49514;43.538;-5.708;2024-02-15T08:35:54;16.20;99.90
60234;DHT22;49514;43.538;-5.708;2024-02-15T08:38:22;16.20;99.90
60234;DHT22;49514;43.538;-5.708;2024-02-15T08:40:49;16.20;99.90
60234;DHT22;49514;43.538;-5.708;2024-02-15T08:43:15;16.30;99.90
60234;DHT22;49514;43.538;-5.708;2024-02-15T08:45:43;16.40;99.90
60234;DHT22;49514;43.538;-5.708;2024-02-15T08:48:10;16.50;99.90
60234;DHT22;49514;43.538;-5.708;2024-02-15T08:50:38;16.50;99.90
60234;DHT22;49514;43.538;-5.708;2024-02-15T08:53:04;16.70;99.90
60234;DHT22;49514;43.538;-5.708;2024-02-15T08:55:34;16.80;99.90
60234;DHT22;49514;43.538;-5.708;2024-02-15T08:58:02;17.00;99.90
60234;DHT22;49514;43.538;-5.708;2024-02-15T09:00:29;17.30;99.90
60234;DHT22;49514;43.538;-5.708;2024-02-15T09:02:55;17.40;99.90
60234;DHT22;49514;43.538;-5.708;2024-02-15T09:05:23;17.70;99.90
60234;DHT22;49514;43.538;-5.708;2024-02-15T09:07:50;17.90;99.90
60234;DHT22;49514;43.538;-5.708;2024-02-15T09:10:18;18.20;99.90
60234;DHT22;49514;43.538;-5.708;2024-02-15T09:12:45;18.40;99.90
60234;DHT22;49514;43.538;-5.708;2024-02-15T09:15:15;18.70;99.90
60234;DHT22;49514;43.538;-5.708;2024-02-15T09:17:42;18.80;99.90
60234;DHT22;49514;43.538;-5.708;2024-02-15T09:20:12;18.90;99.90
60234;DHT22;49514;43.538;-5.708;2024-02-15T09:22:49;19.00;99.90
60234;DHT22;49514;43.538;-5.708;2024-02-15T09:25:16;19.10;99.90
60234;DHT22;49514;43.538;-5.708;2024-02-15T09:27:43;19.20;99.90
60234;DHT22;49514;43.538;-5.708;2024-02-15T09:30:11;19.30;99.90
60234;DHT22;49514;43.538;-5.708;2024-02-15T09:32:39;19.30;99.90
60234;DHT22;49514;43.538;-5.708;2024-02-15T09:35:06;19.40;99.90
60234;DHT22;49514;43.538;-5.708;2024-02-15T09:37:46;19.50;99.90
60234;DHT22;49514;43.538;-5.708;2024-02-15T09:40:17;19.50;99.90
60234;DHT22;49514;43.538;-5.708;2024-02-15T09:42:45;19.60;99.90
60234;DHT22;49514;43.538;-5.708;2024-02-15T09:45:13;19.70;99.90
60234;DHT22;49514;43.538;-5.708;2024-02-15T09:47:41;19.80;99.90
60234;DHT22;49514;43.538;-5.708;2024-02-15T09:50:08;19.90;99.90
60234;DHT22;49514;43.538;-5.708;2024-02-15T09:52:44;20.10;99.90
60234;DHT22;49514;43.538;-5.708;2024-02-15T09:55:11;20.20;99.90
60234;DHT22;49514;43.538;-5.708;2024-02-15T09:57:42;20.30;99.90
60234;DHT22;49514;43.538;-5.708;2024-02-15T10:00:11;20.40;99.90
60234;DHT22;49514;43.538;-5.708;2024-02-15T10:02:46;20.50;99.90
60234;DHT22;49514;43.538;-5.708;2024-02-15T10:05:13;20.50;99.90
60234;DHT22;49514;43.538;-5.708;2024-02-15T10:07:41;20.70;99.90
60234;DHT22;49514;43.538;-5.708;2024-02-15T10:12:48;21.00;99.90
60234;DHT22;49514;43.538;-5.708;2024-02-15T10:15:36;21.10;99.90
60234;DHT22;49514;43.538;-5.708;2024-02-15T10:18:07;21.20;99.90
60234;DHT22;49514;43.538;-5.708;2024-02-15T10:20:39;21.30;99.90
60234;DHT22;49514;43.538;-5.708;2024-02-15T10:25:36;21.60;99.90
60234;DHT22;49514;43.538;-5.708;2024-02-15T10:28:06;21.70;99.90
60234;DHT22;49514;43.538;-5.708;2024-02-15T10:30:40;21.90;99.90
60234;DHT22;49514;43.538;-5.708;2024-02-15T10:33:19;22.00;99.90
60234;DHT22;49514;43.538;-5.708;2024-02-15T10:35:48;22.10;99.90
60234;DHT22;49514;43.538;-5.708;2024-02-15T10:38:15;22.20;99.90
60234;DHT22;49514;43.538;-5.708;2024-02-15T10:40:41;22.20;99.90
60234;DHT22;49514;43.538;-5.708;2024-02-15T10:43:10;22.30;99.90
60234;DHT22;49514;43.538;-5.708;2024-02-15T10:45:40;22.40;99.90
60234;DHT22;49514;43.538;-5.708;2024-02-15T10:48:10;22.50;99.90
60234;DHT22;49514;43.538;-5.708;2024-02-15T10:50:39;22.50;99.90
60234;DHT22;49514;43.538;-5.708;2024-02-15T10:53:23;22.50;99.90
60234;DHT22;49514;43.538;-5.708;2024-02-15T10:56:21;22.60;99.90
60234;DHT22;49514;43.538;-5.708;2024-02-15T11:01:36;22.80;99.90
60234;DHT22;49514;43.538;-5.708;2024-02-15T11:04:07;22.80;99.90
60234;DHT22;49514;43.538;-5.708;2024-02-15T11:06:37;22.80;99.90
60234;DHT22;49514;43.538;-5.708;2024-02-15T11:09:05;22.90;99.90
60234;DHT22;49514;43.538;-5.708;2024-02-15T11:11:34;22.90;99.90
60234;DHT22;49514;43.538;-5.708;2024-02-15T11:14:29;23.00;99.90
60234;DHT22;49514;43.538;-5.708;2024-02-15T11:16:57;23.10;99.90
60234;DHT22;49514;43.538;-5.708;2024-02-15T11:22:09;23.40;99.90
60234;DHT22;49514;43.538;-5.708;2024-02-15T11:24:37;23.50;99.90
60234;DHT22;49514;43.538;-5.708;2024-02-15T11:27:11;23.60;99.90
60234;DHT22;49514;43.538;-5.708;2024-02-15T11:32:39;23.70;99.90
60234;DHT22;49514;43.538;-5.708;2024-02-15T11:43:08;23.90;99.90
60234;DHT22;49514;43.538;-5.708;2024-02-15T11:45:36;24.00;99.90
60234;DHT22;49514;43.538;-5.708;2024-02-15T11:48:08;24.10;99.90
60234;DHT22;49514;43.538;-5.708;2024-02-15T11:50:38;24.10;99.90
60234;DHT22;49514;43.538;-5.708;2024-02-15T11:53:07;24.10;99.90
60234;DHT22;49514;43.538;-5.708;2024-02-15T11:55:38;24.20;99.90
60234;DHT22;49514;43.538;-5.708;2024-02-15T11:58:05;24.40;99.90
60234;DHT22;49514;43.538;-5.708;2024-02-15T12:00:38;24.40;99.90
60234;DHT22;49514;43.538;-5.708;2024-02-15T12:03:24;24.50;99.90
60234;DHT22;49514;43.538;-5.708;2024-02-15T12:06:09;24.70;99.90
60234;DHT22;49514;43.538;-5.708;2024-02-15T12:08:55;24.90;99.90
60234;DHT22;49514;43.538;-5.708;2024-02-15T12:11:40;25.10;99.90
60234;DHT22;49514;43.538;-5.708;2024-02-15T12:14:25;25.10;98.80
60234;DHT22;49514;43.538;-5.708;2024-02-15T12:17:11;25.30;99.70
60234;DHT22;49514;43.538;-5.708;2024-02-15T12:19:59;25.40;98.60
60234;DHT22;49514;43.538;-5.708;2024-02-15T12:22:41;25.50;99.00
60234;DHT22;49514;43.538;-5.708;2024-02-15T12:25:15;25.60;98.10
60234;DHT22;49514;43.538;-5.708;2024-02-15T12:27:45;25.80;97.90
60234;DHT22;49514;43.538;-5.708;2024-02-15T12:30:16;25.90;97.50
60234;DHT22;49514;43.538;-5.708;2024-02-15T12:32:52;26.00;97.10
60234;DHT22;49514;43.538;-5.708;2024-02-15T12:35:20;26.00;98.00
60234;DHT22;49514;43.538;-5.708;2024-02-15T12:37:47;26.00;97.00
60234;DHT22;49514;43.538;-5.708;2024-02-15T12:40:17;25.80;96.30
60234;DHT22;49514;43.538;-5.708;2024-02-15T12:42:44;25.60;95.70
60234;DHT22;49514;43.538;-5.708;2024-02-15T12:45:18;25.40;95.90
60234;DHT22;49514;43.538;-5.708;2024-02-15T12:47:50;25.20;96.40
60234;DHT22;49514;43.538;-5.708;2024-02-15T12:50:18;25.20;97.20
60234;DHT22;49514;43.538;-5.708;2024-02-15T12:52:46;25.30;97.70
60234;DHT22;49514;43.538;-5.708;2024-02-15T12:55:20;25.40;97.60
60234;DHT22;49514;43.538;-5.708;2024-02-15T12:57:49;25.70;97.30
60234;DHT22;49514;43.538;-5.708;2024-02-15T13:00:21;25.70;97.40
60234;DHT22;49514;43.538;-5.708;2024-02-15T13:02:49;25.70;97.50
60234;DHT22;49514;43.538;-5.708;2024-02-15T13:05:17;25.50;97.20
60234;DHT22;49514;43.538;-5.708;2024-02-15T13:07:49;25.20;97.30
60234;DHT22;49514;43.538;-5.708;2024-02-15T13:10:16;24.90;97.30
60234;DHT22;49514;43.538;-5.708;2024-02-15T13:12:44;24.60;97.70
60234;DHT22;49514;43.538;-5.708;2024-02-15T13:15:12;24.50;97.70
60234;DHT22;49514;43.538;-5.708;2024-02-15T13:17:44;24.40;98.30
60234;DHT22;49514;43.538;-5.708;2024-02-15T13:20:12;24.30;98.50
60234;DHT22;49514;43.538;-5.708;2024-02-15T13:22:41;24.30;98.50
60234;DHT22;49514;43.538;-5.708;2024-02-15T13:25:10;24.10;98.80
60234;DHT22;49514;43.538;-5.708;2024-02-15T13:27:37;23.90;99.20
60234;DHT22;49514;43.538;-5.708;2024-02-15T13:30:07;23.80;99.90
60234;DHT22;49514;43.538;-5.708;2024-02-15T13:32:37;23.70;99.90
60234;DHT22;49514;43.538;-5.708;2024-02-15T13:35:05;23.50;99.90
60234;DHT22;49514;43.538;-5.708;2024-02-15T13:37:42;23.40;99.90
60234;DHT22;49514;43.538;-5.708;2024-02-15T13:40:10;23.20;99.90
60234;DHT22;49514;43.538;-5.708;2024-02-15T13:42:44;23.00;99.90
60234;DHT22;49514;43.538;-5.708;2024-02-15T13:45:16;22.80;99.90
60234;DHT22;49514;43.538;-5.708;2024-02-15T13:47:46;22.20;99.90
60234;DHT22;49514;43.538;-5.708;2024-02-15T13:50:16;21.80;99.90
60234;DHT22;49514;43.538;-5.708;2024-02-15T13:55:13;21.10;99.90
60234;DHT22;49514;43.538;-5.708;2024-02-15T13:57:40;20.70;99.90
60234;DHT22;49514;43.538;-5.708;2024-02-15T16:47:59;16.70;99.90
60234;DHT22;49514;43.538;-5.708;2024-02-15T16:50:26;16.70;99.90
60234;DHT22;49514;43.538;-5.708;2024-02-15T16:52:53;16.70;99.90
60234;DHT22;49514;43.538;-5.708;2024-02-15T16:55:20;16.70;99.90
60234;DHT22;49514;43.538;-5.708;2024-02-15T16:57:53;16.70;99.90
60234;DHT22;49514;43.538;-5.708;2024-02-15T17:00:27;16.70;99.90
60234;DHT22;49514;43.538;-5.708;2024-02-15T17:02:54;16.60;99.90
60234;DHT22;49514;43.538;-5.708;2024-02-15T17:05:21;16.70;99.90
60234;DHT22;49514;43.538;-5.708;2024-02-15T17:07:49;16.70;99.90
60234;DHT22;49514;43.538;-5.708;2024-02-15T17:10:16;16.60;99.90
60234;DHT22;49514;43.538;-5.708;2024-02-15T17:12:42;16.60;99.90
60234;DHT22;49514;43.538;-5.708;2024-02-15T17:15:09;16.60;99.90
60234;DHT22;49514;43.538;-5.708;2024-02-15T17:17:38;16.50;99.90
60234;DHT22;49514;43.538;-5.708;2024-02-15T17:20:05;16.50;99.90
60234;DHT22;49514;43.538;-5.708;2024-02-15T17:22:41;16.40;99.90
60234;DHT22;49514;43.538;-5.708;2024-02-15T17:25:09;16.40;99.90
60234;DHT22;49514;43.538;-5.708;2024-02-15T17:27:38;16.40;99.90
60234;DHT22;49514;43.538;-5.708;2024-02-15T17:30:08;16.30;99.90
60234;DHT22;49514;43.538;-5.708;2024-02-15T17:32:35;16.30;99.90
60234;DHT22;49514;43.538;-5.708;2024-02-15T17:35:01;16.20;99.90
60234;DHT22;49514;43.538;-5.708;2024-02-15T17:37:28;16.10;99.90
60234;DHT22;49514;43.538;-5.708;2024-02-15T17:39:54;16.10;99.90
60234;DHT22;49514;43.538;-5.708;2024-02-15T17:42:21;16.00;99.90
60234;DHT22;49514;43.538;-5.708;2024-02-15T17:44:47;16.00;99.90
60234;DHT22;49514;43.538;-5.708;2024-02-15T17:47:13;15.90;99.90
60234;DHT22;49514;43.538;-5.708;2024-02-15T17:49:40;15.90;99.90
60234;DHT22;49514;43.538;-5.708;2024-02-15T17:52:07;15.80;99.90
60234;DHT22;49514;43.538;-5.708;2024-02-15T17:54:34;15.80;99.90
60234;DHT22;49514;43.538;-5.708;2024-02-15T17:57:01;15.70;99.90
60234;DHT22;49514;43.538;-5.708;2024-02-15T17:59:27;15.70;99.90
60234;DHT22;49514;43.538;-5.708;2024-02-15T18:01:54;15.70;99.90
60234;DHT22;49514;43.538;-5.708;2024-02-15T18:04:25;15.70;99.90
60234;DHT22;49514;43.538;-5.708;2024-02-15T18:06:52;15.60;99.90
60234;DHT22;49514;43.538;-5.708;2024-02-15T18:09:18;15.60;99.90
60234;DHT22;49514;43.538;-5.708;2024-02-15T18:11:46;15.60;99.90
60234;DHT22;49514;43.538;-5.708;2024-02-15T18:14:12;15.60;99.90
60234;DHT22;49514;43.538;-5.708;2024-02-15T18:16:39;15.50;99.90
60234;DHT22;49514;43.538;-5.708;2024-02-15T18:19:05;15.50;99.90
60234;DHT22;49514;43.538;-5.708;2024-02-15T18:21:31;15.50;99.90
60234;DHT22;49514;43.538;-5.708;2024-02-15T18:23:58;15.50;99.90
60234;DHT22;49514;43.538;-5.708;2024-02-15T18:26:27;15.40;99.90
60234;DHT22;49514;43.538;-5.708;2024-02-15T18:28:53;15.50;99.90
60234;DHT22;49514;43.538;-5.708;2024-02-15T18:31:20;15.40;99.90
60234;DHT22;49514;43.538;-5.708;2024-02-15T18:33:46;15.40;99.90
60234;DHT22;49514;43.538;-5.708;2024-02-15T18:36:15;15.40;99.90
60234;DHT22;49514;43.538;-5.708;2024-02-15T18:38:43;15.40;99.90
60234;DHT22;49514;43.538;-5.708;2024-02-15T18:41:13;15.40;99.90
60234;DHT22;49514;43.538;-5.708;2024-02-15T18:43:39;15.40;99.90